Share

حائل, السعودية

Hail (OEHL) Elev 3330 ft | 27.44 °N, 41.69 °E | Change Station

Current weather conditions updated 1 hour ago

Scattered Clouds
غيوم متفرقة
90 °F
Feels Like 90 °F
N
16
ريح متغير ريح from SSW
شروق الشمس 5:44 AM
غروب الشمس 6:40 PM
قمر الأحدب الأخير

Tomorrow is forecast to be Cooler than today.

الضغط 30.01 في
وضوح الرؤية 3.7 أميال
سحابات غائم كلياً 4500 ft
غيوم متفرقة 10000 ft
نقطة الندى 37 °F
الرطوبة 16%
Rainfall 0.00 في
عمق الثلج Not available.
الأشعة فوق البنفسجية 0 out of 16
Pollen Not available.
جودة الهواء Not available.
Flu Activity Not available.
METAR OEHL 201500Z 21014KT 6000 BKN045 SCT100 32/03 Q1016 NOSIG

More Conditions Fewer Conditions

الضغط 30.01 في
وضوح الرؤية 3.7 أميال
سحابات غائم كلياً 4500 ft
غيوم متفرقة 10000 ft
نقطة الندى 37 °F
الرطوبة 16%
Rainfall 0.00 في
عمق الثلج Not available.
الأشعة فوق البنفسجية 0 out of 16
Pollen Not available.
جودة الهواء Not available.
Flu Activity Not available.
METAR OEHL 201500Z 21014KT 6000 BKN045 SCT100 32/03 Q1016 NOSIG

More Conditions Fewer Conditions

10-Day Weather Forecast

Almanac

علم الفلك

Apr. 20, 2014 Rise Set
Actual Time 5:44 AM AST 6:40 PM AST
Civil Twilight 5:20 AM AST 7:04 PM AST
Nautical Twilight 4:51 AM AST 7:33 PM AST
Astronomical Twilight 4:22 AM AST 8:02 PM AST
قمر 11:44 PM AST 9:52 AM AST
Length Of Visible Light 13h 44m
طول الیوم
12h 56m
Tomorrow will be 1m 30s longer.
الأحدب الأخير, 69% of the Moon is Illuminated
هذا اليوم
الأحدب الأخير
Apr 22
الربع الآخر
Apr 29
New
May 6
الربع الاول
May 14
بدر

Today's Extremes

Country Highs Country Lows

Community

  • Columbine
    Columbine
  • Easter Sunrise
    Easter Sunrise
  • Easter Eve - The Promise - Lake Palestine, TX
    Easter Eve - The Promise - Lake Palestine, TX
  • Happy Easter
    Happy Easter
  • EARLY FOGGY MORNING
    EARLY FOGGY MORNING

WunderPhotos

Upload Photos

1,703,262 photos uploaded!

WunderBlogs® & News

Nearby

جودة الهواء

Not available.

عمق الثلج

Not available.

Coastal Water Temperatures

مكان درجات الحرارة
No Stations Reporting

Earthquake Activity

City Distance Mag. Time & Date
No recent earthquake activity has been reported nearby.
Minimum magnitude displayed is 2.5.

Nearby Weather Stations

There are no personal weather stations in this area.

What do you think?

We're not finished. Please let us know what you like, what you don't like, and what you are still missing.